• Join FlightAware (Why Join?)
  • Login
  • US Flag 
12:46PM EST


 

Airport Tracker/Info


-or-


 

Live Flight TrackerFlight Track Log ✈ SWA2480 ✈ 27-May-2013 ✈ KLAS - KOAK

Flight Track Log - Related Links

Times and Time Zones

All times are in EDT time to prevent confusion due to time zone crossing. See the SWA2480 flight status page for this flight to view local times or setup timezone preferences in your user account.

Time Position Orientation Groundspeed Altitude Reporting Facility
EDT Latitude Longitude Course Direction KTS MPH feet Rate Location/Type
02:37PM 36.0761 -115.1683 271° West 157 181 3,100  Level Los Angeles Center
02:38PM 36.0767 -115.2106 271° West 186 214 4,100 2,040 Climbing Los Angeles Center
02:39PM 36.0633 -115.2539 249° West 226 260 5,600 1,860 Climbing Los Angeles Center
02:39PM 36.0278 -115.2744 205° Southwest 261 300 6,200 1,200 Climbing Los Angeles Center
02:40PM 35.9936 -115.2914 202° Southwest 271 312 6,900 2,400 Climbing Los Angeles Center
02:40PM 35.9575 -115.3186 211° Southwest 291 335 8,600 3,240 Climbing Los Angeles Center
02:41PM 35.9294 -115.3511 223° Southwest 283 326 10,300 3,300 Climbing Los Angeles Center
02:42PM 35.8683 -115.4244 224° Southwest 298 343 13,800 2,640 Climbing Los Angeles Center
02:43PM 35.8606 -115.5206 264° West 309 356 15,800 1,860 Climbing Los Angeles Center
02:44PM 35.8714 -115.6581 276° West 369 425 17,700 2,040 Climbing Los Angeles Center
02:45PM 35.8883 -115.7672 281° West 385 443 20,000 2,460 Climbing Los Angeles Center
02:46PM 35.9750 -115.8964 310° West 399 459 22,900 2,220 Climbing Los Angeles Center
02:47PM 36.0453 -115.9961 311° West 407 468 24,700 1,800 Climbing Los Angeles Center
02:48PM 36.1222 -116.1075 311° West 420 483 26,800 1,980 Climbing Los Angeles Center
02:49PM 36.2114 -116.2339 311° West 419 482 28,800 1,680 Climbing Los Angeles Center
02:50PM 36.2894 -116.3444 311° West 426 490 30,300 1,500 Climbing Los Angeles Center
02:51PM 36.3664 -116.4564 311° West 428 493 32,000 1,500 Climbing Los Angeles Center
02:52PM 36.4428 -116.5669 311° West 425 489 33,500 1,440 Climbing Los Angeles Center
02:53PM 36.5183 -116.6767 311° West 421 484 35,000 1,440 Climbing Los Angeles Center
02:54PM 36.6058 -116.7822 316° Northwest 419 482 36,500 1,380 Climbing Los Angeles Center
02:55PM 36.7247 -116.8686 330° Northwest 413 475 37,900 720 Climbing Los Angeles Center
02:56PM 36.8033 -116.9283 329° Northwest 412 474 38,000  Climbing Los Angeles Center
02:57PM 36.9208 -117.0181 329° Northwest 412 474 38,000  Level Los Angeles Center
02:58PM 37.0181 -117.0939 328° Northwest 412 474 38,000  Level Los Angeles Center
02:59PM 37.1161 -117.1706 328° Northwest 414 476 38,000  Level Oakland Center
03:00PM 37.2139 -117.2469 328° Northwest 413 475 38,000  Level Oakland Center
03:01PM 37.2978 -117.3389 319° Northwest 410 472 38,000  Level Oakland Center
03:03PM 37.3306 -117.5025 284° West 405 466 38,000  Level Los Angeles Center
03:04PM 37.3547 -117.6392 283° West 402 463 38,000  Level Los Angeles Center
03:05PM 37.3794 -117.7769 283° West 399 459 38,000  Level Oakland Center
03:06PM 37.4044 -117.9133 283° West 399 459 38,000  Level Oakland Center
03:07PM 37.4281 -118.0494 282° West 398 458 38,000  Level Oakland Center
03:08PM 37.4525 -118.1858 283° West 398 458 38,000  Level Oakland Center
03:09PM 37.4775 -118.3222 283° West 398 458 38,000  Level Oakland Center
03:10PM 37.5017 -118.4617 282° West 404 465 38,000  Level Oakland Center
03:11PM 37.5250 -118.5978 282° West 402 463 38,000  Level Oakland Center
03:12PM 37.5478 -118.7344 282° West 399 459 38,000  Level Oakland Center
03:13PM 37.5739 -118.8850 282° West 399 459 38,000  Level Oakland Center
03:14PM 37.5964 -119.0192 282° West 394 453 38,000 -540 Level Oakland Center
03:15PM 37.6217 -119.1686 282° West 399 459 37,000 -1,020 Descending Oakland Center
03:16PM 37.6450 -119.3058 282° West 399 459 36,000 -960 Descending Oakland Center
03:17PM 37.6683 -119.4436 282° West 401 461 35,100 -1,020 Descending Oakland Center
03:18PM 37.6914 -119.5825 282° West 403 464 34,000 -540 Descending Oakland Center
03:19PM 37.7028 -119.7189 276° West 397 457 34,000  Level Oakland Center
03:20PM 37.6997 -119.8583 268° West 397 457 34,000  Level Oakland Center
03:21PM 37.6975 -119.9972 269° West 396 456 34,000 -840 Level Oakland Center
03:22PM 37.6939 -120.1628 268° West 394 453 32,300 -2,100 Descending Oakland Center
03:23PM 37.6903 -120.3036 268° West 399 459 29,800 -2,100 Descending Oakland Center
03:24PM 37.6867 -120.4506 268° West 414 476 28,000 -1,920 Descending Oakland Center
03:25PM 37.6828 -120.5847 268° West 387 445 25,900 -2,520 Descending Oakland Center
03:26PM 37.6797 -120.7206 268° West 386 444 22,900 -2,760 Descending Oakland Center
03:27PM 37.6761 -120.8569 268° West 389 448 20,300 -2,520 Descending Oakland Center
03:28PM 37.6714 -120.9894 267° West 380 437 17,800 -2,280 Descending Oakland Center
03:29PM 37.6678 -121.1217 268° West 375 432 15,700 -1,980 Descending Oakland Center
03:30PM 37.6642 -121.2425 268° West 351 404 13,800 -2,040 Descending Oakland Center
03:31PM 37.6600 -121.3814 268° West 333 383 11,500 -1,800 Descending Oakland Center
03:32PM 37.6558 -121.4919 267° West 321 369 10,200 -1,020 Descending Oakland Center
03:33PM 37.6500 -121.5667 264° West 265 305 9,600 -1,080 Descending Northern Cal TRACON
03:34PM 37.6333 -121.6667 258° West 257 296 8,300 -1,500 Descending Northern Cal TRACON
03:35PM 37.6167 -121.7333 253° West 261 300 6,800 -1,620 Descending Northern Cal TRACON
03:36PM 37.6000 -121.8333 258° West 262 302 5,300 -1,260 Descending Northern Cal TRACON
03:37PM 37.5667 -121.9000 238° Southwest 254 292 4,400 -780 Descending Northern Cal TRACON
03:38PM 37.5667 -121.9833 270° West 216 249 3,800 -660 Descending Northern Cal TRACON
03:39PM 37.5833 -122.0333 293° West 188 216 3,100 -660 Descending Northern Cal TRACON
03:40PM 37.6167 -122.0833 310° West 182 209 2,600 -660 Descending Northern Cal TRACON
03:40PM 37.6294 -122.1083 303° West 187 215 2,100 -900 Descending Oakland Center
03:41PM 37.6500 -122.1333 316° Northwest 148 170 1,700 -780 Descending Northern Cal TRACON
03:42PM 37.6667 -122.1667 302° West 140 161 1,000 -780 Descending Northern Cal TRACON
03:43PM 37.7000 -122.2000 322° Northwest 143 165 200 -840 Descending Northern Cal TRACON
03:46PM 37.7167 -122.2167 270° West  Level FlightAware Approximate